createdAt,value
2022-11-21T00:01:18.318Z,75.11
2022-11-21T00:04:48.975Z,75.15
2022-11-21T00:08:19.933Z,75.16
2022-11-21T00:11:53.276Z,75.20
2022-11-21T00:15:20.863Z,75.19
2022-11-21T00:18:48.499Z,75.23
2022-11-21T00:22:16.482Z,75.35
2022-11-21T00:25:44.364Z,75.06
2022-11-21T00:29:15.497Z,75.05
2022-11-21T00:32:44.694Z,75.04
2022-11-21T00:36:13.541Z,75.33
2022-11-21T00:39:41.522Z,75.24
2022-11-21T00:43:45.996Z,75.49
2022-11-21T00:47:13.271Z,75.48
2022-11-21T00:50:40.201Z,75.50
2022-11-21T00:54:07.840Z,75.33
2022-11-21T00:57:35.201Z,75.21
2022-11-21T01:01:11.049Z,74.93
2022-11-21T01:04:38.855Z,74.83
2022-11-21T01:08:06.035Z,74.66
2022-11-21T01:11:33.452Z,74.49
2022-11-21T01:15:00.169Z,74.51
2022-11-21T01:18:32.750Z,74.25
2022-11-21T01:22:05.920Z,74.00
2022-11-21T01:25:34.843Z,73.99
2022-11-21T01:29:01.932Z,73.91
2022-11-21T01:32:29.549Z,73.86
2022-11-21T01:35:56.591Z,73.78
2022-11-21T01:39:26.216Z,73.77
2022-11-21T01:43:05.872Z,73.78
2022-11-21T01:46:33.657Z,73.92
2022-11-21T01:50:01.430Z,73.76
2022-11-21T01:53:34.114Z,73.79
2022-11-21T01:57:09.343Z,73.73
2022-11-21T02:00:42.264Z,73.80
2022-11-21T02:04:17.107Z,73.94
2022-11-21T02:07:47.056Z,74.05
2022-11-21T02:11:24.869Z,74.08
2022-11-21T02:14:53.459Z,74.30
2022-11-21T02:18:20.684Z,74.07
2022-11-21T02:21:56.472Z,74.13
2022-11-21T02:25:26.015Z,73.93
2022-11-21T02:28:53.103Z,73.97
2022-11-21T02:32:27.821Z,73.92
2022-11-21T02:36:03.581Z,73.93
2022-11-21T02:39:35.367Z,73.86
2022-11-21T02:43:10.405Z,73.72
2022-11-21T02:46:38.030Z,73.70
2022-11-21T02:50:12.231Z,73.75
2022-11-21T02:53:39.797Z,73.81
2022-11-21T02:57:07.598Z,73.81
2022-11-21T03:00:36.472Z,73.82
2022-11-21T03:04:03.712Z,73.83
2022-11-21T03:07:32.721Z,73.71
2022-11-21T03:10:59.939Z,73.69
2022-11-21T03:14:26.968Z,73.70
2022-11-21T03:17:54.428Z,73.74
2022-11-21T03:21:21.701Z,73.72
2022-11-21T03:24:49.213Z,73.79
2022-11-21T03:28:16.850Z,73.71
2022-11-21T03:31:43.846Z,73.69
2022-11-21T03:35:11.561Z,73.62
2022-11-21T03:38:38.250Z,73.69
2022-11-21T03:42:05.471Z,73.67
2022-11-21T03:45:32.423Z,73.40
2022-11-21T03:49:00.651Z,73.14
2022-11-21T03:52:28.043Z,73.32
2022-11-21T03:55:54.848Z,73.24
2022-11-21T03:59:21.546Z,73.36
2022-11-21T04:02:48.317Z,73.37
2022-11-21T04:06:16.395Z,73.04
2022-11-21T04:09:42.736Z,73.01
2022-11-21T04:13:09.412Z,72.87
2022-11-21T04:16:36.363Z,72.82
2022-11-21T04:20:04.535Z,72.78
2022-11-21T04:23:31.900Z,72.73
2022-11-21T04:26:58.638Z,72.70
2022-11-21T04:30:25.021Z,72.92
2022-11-21T04:33:51.454Z,73.00
2022-11-21T04:37:18.066Z,72.94
2022-11-21T04:40:48.547Z,72.96
2022-11-21T04:44:15.441Z,73.04
2022-11-21T04:47:43.194Z,72.89
2022-11-21T04:51:10.268Z,72.87
2022-11-21T04:54:37.183Z,72.83
2022-11-21T04:58:03.760Z,72.92
2022-11-21T05:01:30.760Z,72.87
2022-11-21T05:04:58.260Z,72.86
2022-11-21T05:08:25.143Z,72.85
2022-11-21T05:12:09.841Z,72.97
2022-11-21T05:15:36.481Z,72.99
2022-11-21T05:19:03.081Z,73.03
2022-11-21T05:22:30.134Z,73.30
2022-11-21T05:25:56.788Z,73.42
2022-11-21T05:29:28.036Z,73.20
2022-11-21T05:32:56.320Z,73.18
2022-11-21T05:36:23.081Z,73.18
2022-11-21T05:39:49.473Z,73.14
2022-11-21T05:43:34.685Z,73.40
2022-11-21T05:47:01.533Z,73.52
2022-11-21T05:50:28.387Z,73.46
2022-11-21T05:53:55.551Z,73.81
2022-11-21T05:57:22.510Z,73.82
2022-11-21T06:00:49.599Z,73.95
2022-11-21T06:04:16.815Z,73.75
2022-11-21T06:07:43.943Z,74.01
2022-11-21T06:11:14.566Z,73.85
2022-11-21T06:14:41.405Z,74.13
2022-11-21T06:18:08.043Z,73.98
2022-11-21T06:21:37.501Z,73.89
2022-11-21T06:25:03.954Z,74.17
2022-11-21T06:28:32.554Z,74.19
2022-11-21T06:31:59.316Z,74.16
2022-11-21T06:35:26.179Z,74.02
2022-11-21T06:38:54.259Z,74.13
2022-11-21T06:42:21.111Z,74.44
2022-11-21T06:45:47.860Z,74.58
2022-11-21T06:49:14.770Z,74.37
2022-11-21T06:52:42.190Z,74.50
2022-11-21T06:56:09.073Z,74.61
2022-11-21T06:59:36.035Z,74.39
2022-11-21T07:03:05.239Z,74.33
2022-11-21T07:06:35.365Z,74.27
2022-11-21T07:10:02.115Z,74.40
2022-11-21T07:13:30.600Z,74.33
2022-11-21T07:16:57.268Z,74.42
2022-11-21T07:20:24.224Z,74.37
2022-11-21T07:23:50.872Z,74.37
2022-11-21T07:27:18.716Z,74.41
2022-11-21T07:30:45.753Z,74.53
2022-11-21T07:34:13.234Z,74.46
2022-11-21T07:37:42.468Z,74.51
2022-11-21T07:41:09.013Z,74.54
2022-11-21T07:44:36.073Z,74.53
2022-11-21T07:48:03.979Z,74.55
2022-11-21T07:51:31.991Z,74.57
2022-11-21T07:54:59.416Z,74.67
2022-11-21T07:58:26.327Z,74.78
2022-11-21T08:01:53.962Z,74.90
2022-11-21T08:05:20.829Z,75.05
2022-11-21T08:08:48.449Z,75.21
2022-11-21T08:12:15.937Z,75.23
2022-11-21T08:15:42.886Z,75.15
2022-11-21T08:19:09.541Z,75.18
2022-11-21T08:22:39.040Z,75.09
2022-11-21T08:26:06.137Z,75.05
2022-11-21T08:29:33.359Z,74.82
2022-11-21T08:33:01.284Z,74.94
2022-11-21T08:36:28.328Z,74.42
2022-11-21T08:39:55.350Z,74.30
2022-11-21T08:43:22.198Z,74.38
2022-11-21T08:46:48.826Z,74.29
2022-11-21T08:50:16.449Z,74.49
2022-11-21T08:53:43.065Z,74.22
2022-11-21T08:57:09.538Z,74.22
2022-11-21T09:00:36.518Z,74.32
2022-11-21T09:04:03.598Z,74.11
2022-11-21T09:07:30.767Z,74.30
2022-11-21T09:10:59.047Z,74.29
2022-11-21T09:14:43.920Z,74.12
2022-11-21T09:18:12.573Z,74.11
2022-11-21T09:21:39.289Z,74.26
2022-11-21T09:25:06.683Z,74.19
2022-11-21T09:28:33.352Z,74.36
2022-11-21T09:32:00.217Z,74.35
2022-11-21T09:35:30.511Z,74.29
2022-11-21T09:38:59.906Z,74.37
2022-11-21T09:42:54.563Z,74.28
2022-11-21T09:46:27.811Z,74.50
2022-11-21T09:49:58.620Z,74.33
2022-11-21T09:53:31.875Z,74.28
2022-11-21T09:57:02.436Z,74.20
2022-11-21T10:00:29.526Z,74.13
2022-11-21T10:04:28.172Z,74.19
2022-11-21T10:08:01.442Z,74.17
2022-11-21T10:11:59.207Z,73.84
2022-11-21T10:15:44.413Z,73.87
2022-11-21T10:19:50.875Z,73.90
2022-11-21T10:23:35.812Z,73.85
2022-11-21T10:27:13.550Z,73.83
2022-11-21T10:30:47.918Z,73.87
2022-11-21T10:34:19.176Z,73.84
2022-11-21T10:37:51.646Z,74.03
2022-11-21T10:41:26.035Z,73.77
2022-11-21T10:45:11.053Z,74.16
2022-11-21T10:48:39.708Z,74.21
2022-11-21T10:52:16.383Z,74.20
2022-11-21T10:56:01.676Z,74.14
2022-11-21T10:59:33.325Z,74.05
2022-11-21T11:03:07.373Z,74.20
2022-11-21T11:06:32.563Z,74.19
2022-11-21T11:10:27.562Z,74.15
2022-11-21T11:14:00.680Z,74.20
2022-11-21T11:17:33.121Z,73.97
2022-11-21T11:21:15.429Z,73.91
2022-11-21T11:24:57.624Z,73.89
2022-11-21T11:28:34.994Z,73.87
2022-11-21T11:32:05.147Z,73.68
2022-11-21T11:35:36.070Z,73.68
2022-11-21T11:39:08.155Z,73.66
2022-11-21T11:46:52.524Z,73.49
2022-11-21T11:50:24.379Z,73.47
2022-11-21T11:53:59.904Z,73.37
2022-11-21T11:57:38.563Z,73.41
2022-11-21T12:01:12.883Z,73.56
2022-11-21T12:04:47.323Z,73.64
2022-11-21T12:12:18.003Z,73.52
2022-11-21T12:15:54.554Z,73.79
2022-11-21T12:19:25.202Z,73.84
2022-11-21T12:22:55.490Z,73.72
2022-11-21T12:26:52.629Z,73.68
2022-11-21T12:30:54.425Z,73.50
2022-11-21T12:34:38.469Z,73.66
2022-11-21T12:38:30.505Z,73.48
2022-11-21T12:42:19.369Z,73.43
2022-11-21T12:45:52.413Z,73.55
2022-11-21T12:49:54.401Z,73.44
2022-11-21T12:53:49.876Z,73.43
2022-11-21T12:57:18.307Z,73.21
2022-11-21T13:01:03.143Z,73.21
2022-11-21T13:04:36.726Z,73.28
2022-11-21T13:08:07.680Z,73.23
2022-11-21T13:12:01.004Z,73.40
2022-11-21T13:15:38.466Z,73.19
2022-11-21T13:19:17.595Z,73.40
2022-11-21T13:23:28.878Z,73.51
2022-11-21T13:26:58.489Z,73.67
2022-11-21T13:30:28.904Z,73.64
2022-11-21T13:33:56.757Z,73.55
2022-11-21T13:37:54.593Z,73.76
2022-11-21T13:42:22.197Z,73.82
2022-11-21T13:45:50.789Z,73.98
2022-11-21T13:49:22.733Z,73.92
2022-11-21T13:52:57.599Z,73.78
2022-11-21T13:56:37.465Z,73.48
2022-11-21T14:00:22.048Z,73.59
2022-11-21T14:04:16.333Z,73.55
2022-11-21T14:07:45.328Z,73.58
2022-11-21T14:11:37.259Z,73.36
2022-11-21T14:15:27.676Z,73.50
2022-11-21T14:18:55.292Z,73.56
2022-11-21T14:22:34.754Z,73.38
2022-11-21T14:26:06.366Z,73.43
2022-11-21T14:29:42.924Z,73.48
2022-11-21T14:33:34.524Z,73.39
2022-11-21T14:37:05.408Z,73.48
2022-11-21T14:40:32.562Z,73.47
2022-11-21T14:44:18.863Z,73.63
2022-11-21T14:47:54.499Z,73.73
2022-11-21T14:51:27.816Z,73.70
2022-11-21T14:55:28.128Z,73.81
2022-11-21T14:58:43.751Z,73.92
2022-11-21T15:02:17.781Z,74.01
2022-11-21T15:06:01.752Z,74.15
2022-11-21T15:13:45.175Z,73.82
2022-11-21T15:17:18.782Z,73.77
2022-11-21T15:20:50.329Z,73.60
2022-11-21T15:24:29.382Z,73.71
2022-11-21T15:28:11.808Z,73.59
2022-11-21T15:31:38.891Z,73.71
2022-11-21T15:35:40.570Z,73.75
2022-11-21T15:39:14.666Z,73.67
2022-11-21T15:42:42.373Z,73.78
2022-11-21T15:46:17.635Z,73.73
2022-11-21T15:49:44.440Z,73.44
2022-11-21T15:53:21.658Z,73.51
2022-11-21T15:56:49.914Z,73.75
2022-11-21T16:00:19.566Z,73.68
2022-11-21T16:03:49.991Z,73.62
2022-11-21T16:07:18.675Z,73.87
2022-11-21T16:10:45.888Z,73.70
2022-11-21T16:14:17.308Z,73.90
2022-11-21T16:17:47.376Z,74.13
2022-11-21T16:21:15.410Z,74.29
2022-11-21T16:24:43.009Z,74.17
2022-11-21T16:28:12.851Z,74.25
2022-11-21T16:31:40.114Z,74.02
2022-11-21T16:35:10.943Z,74.05
2022-11-21T16:38:39.815Z,73.94
2022-11-21T16:42:11.722Z,73.74
2022-11-21T16:45:41.522Z,73.63
2022-11-21T16:49:09.272Z,73.66
2022-11-21T16:52:42.293Z,73.56
2022-11-21T16:56:12.158Z,73.68
2022-11-21T16:59:41.957Z,73.53
2022-11-21T17:03:11.700Z,73.56
2022-11-21T17:06:41.072Z,73.69
2022-11-21T17:10:09.386Z,73.58
2022-11-21T17:13:36.648Z,73.59
2022-11-21T17:17:03.755Z,73.77
2022-11-21T17:20:30.759Z,73.70
2022-11-21T17:23:57.729Z,73.77
2022-11-21T17:27:29.657Z,73.83
2022-11-21T17:30:57.327Z,74.13
2022-11-21T17:34:28.424Z,74.17
2022-11-21T17:38:02.167Z,74.35
2022-11-21T17:41:33.194Z,74.28
2022-11-21T17:45:00.273Z,74.54
2022-11-21T17:48:32.576Z,74.10
2022-11-21T17:52:01.898Z,74.16
2022-11-21T17:55:28.858Z,74.18
2022-11-21T17:58:56.751Z,74.00
2022-11-21T18:02:27.471Z,73.84
2022-11-21T18:06:05.150Z,73.83
2022-11-21T18:09:34.910Z,73.56
2022-11-21T18:13:10.952Z,73.83
2022-11-21T18:16:52.793Z,73.78
2022-11-21T18:20:21.326Z,73.73
2022-11-21T18:23:48.394Z,73.59
2022-11-21T18:27:15.990Z,73.81
2022-11-21T18:30:45.269Z,73.72
2022-11-21T18:34:13.240Z,73.81
2022-11-21T18:37:44.848Z,73.98
2022-11-21T18:41:18.902Z,73.79
2022-11-21T18:44:47.081Z,73.81
2022-11-21T18:48:17.113Z,74.02
2022-11-21T18:51:48.100Z,73.85
2022-11-21T18:55:25.257Z,73.93
2022-11-21T18:58:58.769Z,74.02
2022-11-21T19:02:28.493Z,74.03
2022-11-21T19:05:56.575Z,73.96
2022-11-21T19:09:26.912Z,74.01
2022-11-21T19:13:01.772Z,74.04
2022-11-21T19:16:34.570Z,74.04
2022-11-21T19:20:02.279Z,74.30
2022-11-21T19:23:30.111Z,74.08
2022-11-21T19:27:03.257Z,74.06
2022-11-21T19:30:32.763Z,73.87
2022-11-21T19:34:09.482Z,73.85
2022-11-21T19:37:37.851Z,73.93
2022-11-21T19:41:16.847Z,74.11
2022-11-21T19:44:46.648Z,74.22
2022-11-21T19:48:24.640Z,74.17
2022-11-21T19:51:52.612Z,74.05
2022-11-21T19:55:26.509Z,74.21
2022-11-21T19:59:03.694Z,74.20
2022-11-21T20:02:34.486Z,74.59
2022-11-21T20:06:08.044Z,74.47
2022-11-21T20:09:38.251Z,74.53
2022-11-21T20:13:05.237Z,74.44
2022-11-21T20:16:35.102Z,74.27
2022-11-21T20:20:07.698Z,74.22
2022-11-21T20:23:35.283Z,73.97
2022-11-21T20:27:06.831Z,74.14
2022-11-21T20:30:35.328Z,74.16
2022-11-21T20:34:06.101Z,74.23
2022-11-21T20:37:34.916Z,74.09
2022-11-21T20:41:02.145Z,74.10
2022-11-21T20:45:41.656Z,74.00
2022-11-21T20:48:20.218Z,73.98
2022-11-21T20:53:26.320Z,73.77
2022-11-21T20:55:39.529Z,73.77
2022-11-21T20:59:07.935Z,73.77
2022-11-21T21:02:37.819Z,73.92
2022-11-21T21:06:07.387Z,73.97
2022-11-21T21:09:36.909Z,73.94
2022-11-21T21:13:07.317Z,74.05
2022-11-21T21:16:38.059Z,73.96
2022-11-21T21:20:14.119Z,73.78
2022-11-21T21:23:45.509Z,74.08
2022-11-21T21:27:14.302Z,74.09
2022-11-21T21:30:45.443Z,74.03
2022-11-21T21:34:19.178Z,74.29
2022-11-21T21:37:50.842Z,74.24
2022-11-21T21:41:21.232Z,74.09
2022-11-21T21:44:53.148Z,74.12
2022-11-21T21:48:20.016Z,73.96
2022-11-21T21:51:51.084Z,73.98
2022-11-21T21:55:20.703Z,73.95
2022-11-21T21:58:53.798Z,73.83
2022-11-21T22:02:24.764Z,74.05
2022-11-21T22:05:54.364Z,73.89
2022-11-21T22:09:21.657Z,73.88
2022-11-21T22:12:54.511Z,73.97
2022-11-21T22:16:23.241Z,73.84
2022-11-21T22:19:51.930Z,73.68
2022-11-21T22:23:20.074Z,73.93
2022-11-21T22:26:46.894Z,73.97
2022-11-21T22:30:17.066Z,74.20
2022-11-21T22:33:46.222Z,74.20
2022-11-21T22:37:13.836Z,73.99
2022-11-21T22:40:44.272Z,74.01
2022-11-21T22:44:12.073Z,74.30
2022-11-21T22:47:47.567Z,74.15
2022-11-21T22:51:24.270Z,74.06
2022-11-21T22:54:51.761Z,74.14
2022-11-21T22:58:18.982Z,74.14
2022-11-21T23:01:49.602Z,74.00
2022-11-21T23:05:17.314Z,73.92
2022-11-21T23:08:45.745Z,73.64
2022-11-21T23:12:15.610Z,73.71
2022-11-21T23:15:43.536Z,74.01
2022-11-21T23:19:13.167Z,74.03
2022-11-21T23:22:40.687Z,73.92
2022-11-21T23:26:08.434Z,73.81
2022-11-21T23:29:36.115Z,73.84
2022-11-21T23:33:03.476Z,73.95
2022-11-21T23:36:31.131Z,73.77
2022-11-21T23:39:58.951Z,73.82
2022-11-21T23:43:27.956Z,73.68
2022-11-21T23:46:56.700Z,73.89
2022-11-21T23:50:28.976Z,74.18
2022-11-21T23:53:58.676Z,73.83
2022-11-21T23:57:26.436Z,73.84
